createdAt,value
2022-10-05T00:01:53.101Z,101550.44
2022-10-05T00:05:54.630Z,101550.31
2022-10-05T00:09:59.826Z,101554.16
2022-10-05T00:14:01.416Z,101549.66
2022-10-05T00:18:09.814Z,101546.19
2022-10-05T00:22:21.634Z,101537.19
2022-10-05T00:26:25.532Z,101552.06
2022-10-05T00:30:32.472Z,101551.94
2022-10-05T00:34:34.346Z,101554.69
2022-10-05T00:38:35.788Z,101542.91
2022-10-05T00:43:01.192Z,101535.78
2022-10-05T00:47:19.437Z,101539.19
2022-10-05T00:51:26.562Z,101533.75
2022-10-05T00:55:55.384Z,101531.13
2022-10-05T01:00:08.872Z,101531.97
2022-10-05T01:04:21.043Z,101521.25
2022-10-05T01:09:03.371Z,101515.88
2022-10-05T01:13:43.687Z,101509.63
2022-10-05T01:17:57.045Z,101511.63
2022-10-05T01:22:18.456Z,101527.41
2022-10-05T01:26:46.073Z,101519.00
2022-10-05T01:31:10.035Z,101509.47
2022-10-05T01:35:24.026Z,101502.34
2022-10-05T01:39:33.971Z,101502.28
2022-10-05T01:43:54.014Z,101500.41
2022-10-05T01:48:09.656Z,101497.84
2022-10-05T01:52:25.624Z,101497.78
2022-10-05T01:56:43.373Z,101500.47
2022-10-05T02:01:04.118Z,101493.56
2022-10-05T02:05:13.957Z,101476.09
2022-10-05T02:09:25.023Z,101474.06
2022-10-05T02:13:39.327Z,101467.06
2022-10-05T02:17:51.962Z,101443.38
2022-10-05T02:21:59.185Z,101453.34
2022-10-05T02:26:03.081Z,101448.19
2022-10-05T02:30:12.800Z,101453.63
2022-10-05T02:34:36.324Z,101451.09
2022-10-05T02:39:08.469Z,101462.66
2022-10-05T02:43:32.396Z,101454.50
2022-10-05T02:47:45.544Z,101450.88
2022-10-05T02:52:02.621Z,101464.41
2022-10-05T02:56:18.292Z,101476.66
2022-10-05T03:00:22.806Z,101476.03
2022-10-05T03:05:07.134Z,101461.66
2022-10-05T03:09:09.799Z,101470.75
2022-10-05T03:13:42.800Z,101464.41
2022-10-05T03:17:56.000Z,101457.28
2022-10-05T03:22:10.193Z,101454.66
2022-10-05T03:26:17.070Z,101442.91
2022-10-05T03:30:23.751Z,101434.72
2022-10-05T03:34:44.568Z,101435.41
2022-10-05T03:38:55.376Z,101427.50
2022-10-05T03:43:17.856Z,101426.78
2022-10-05T03:47:39.655Z,101412.31
2022-10-05T03:51:55.049Z,101401.50
2022-10-05T03:56:14.467Z,101404.97
2022-10-05T04:00:19.412Z,101398.78
2022-10-05T04:04:52.724Z,101403.50
2022-10-05T04:09:09.464Z,101400.53
2022-10-05T04:13:30.661Z,101402.59
2022-10-05T04:17:40.457Z,101393.69
2022-10-05T04:21:52.358Z,101391.97
2022-10-05T04:26:02.124Z,101405.31
2022-10-05T04:30:12.482Z,101395.09
2022-10-05T04:34:33.504Z,101406.34
2022-10-05T04:39:01.183Z,101401.72
2022-10-05T04:43:29.270Z,101402.75
2022-10-05T04:48:00.234Z,101406.06
2022-10-05T04:52:16.804Z,101405.28
2022-10-05T04:56:27.939Z,101401.72
2022-10-05T05:00:52.888Z,101396.38
2022-10-05T05:05:20.782Z,101394.31
2022-10-05T05:09:50.456Z,101396.41
2022-10-05T05:14:06.832Z,101399.72
2022-10-05T05:18:36.260Z,101398.81
2022-10-05T05:23:10.773Z,101403.66
2022-10-05T05:27:34.326Z,101386.34
2022-10-05T05:31:57.743Z,101394.28
2022-10-05T05:36:20.777Z,101386.31
2022-10-05T05:40:34.000Z,101383.66
2022-10-05T05:44:44.034Z,101398.03
2022-10-05T05:48:47.517Z,101397.97
2022-10-05T05:52:59.179Z,101381.78
2022-10-05T05:57:22.858Z,101391.59
2022-10-05T06:01:43.582Z,101381.16
2022-10-05T06:05:52.159Z,101377.72
2022-10-05T06:10:01.468Z,101375.66
2022-10-05T06:14:28.509Z,101368.47
2022-10-05T06:18:32.698Z,101354.16
2022-10-05T06:22:39.785Z,101342.75
2022-10-05T06:27:04.557Z,101359.53
2022-10-05T06:31:29.662Z,101368.97
2022-10-05T06:36:03.949Z,101363.78
2022-10-05T06:40:18.390Z,101355.13
2022-10-05T06:44:33.452Z,101344.56
2022-10-05T06:49:21.400Z,101358.31
2022-10-05T06:54:21.816Z,101363.69
2022-10-05T06:58:43.873Z,101366.25
2022-10-05T07:02:54.331Z,101363.75
2022-10-05T07:07:14.938Z,101365.19
2022-10-05T07:11:59.647Z,101366.16
2022-10-05T07:16:18.605Z,101365.97
2022-10-05T07:20:30.281Z,101381.19
2022-10-05T07:24:34.613Z,101376.50
2022-10-05T07:28:55.506Z,101375.53
2022-10-05T07:33:17.700Z,101377.09
2022-10-05T07:37:55.393Z,101382.25
2022-10-05T07:42:33.789Z,101367.91
2022-10-05T07:46:50.062Z,101383.59
2022-10-05T07:51:32.275Z,101374.56
2022-10-05T07:55:39.907Z,101367.75
2022-10-05T08:00:01.388Z,101370.31
2022-10-05T08:04:14.454Z,101380.28
2022-10-05T08:08:27.202Z,101383.34
2022-10-05T08:12:31.666Z,101380.63
2022-10-05T08:16:37.839Z,101379.25
2022-10-05T08:20:51.960Z,101384.22
2022-10-05T08:24:59.388Z,101375.25
2022-10-05T08:29:13.939Z,101365.31
2022-10-05T08:33:18.112Z,101362.25
2022-10-05T08:37:24.233Z,101365.16
2022-10-05T08:41:46.520Z,101372.97
2022-10-05T08:46:03.977Z,101374.44
2022-10-05T08:50:17.823Z,101363.81
2022-10-05T08:54:25.519Z,101361.56
2022-10-05T08:59:04.363Z,101369.66
2022-10-05T09:03:20.754Z,101364.97
2022-10-05T09:08:12.179Z,101370.88
2022-10-05T09:12:37.451Z,101368.56
2022-10-05T09:17:21.356Z,101377.31
2022-10-05T09:21:43.562Z,101375.47
2022-10-05T09:25:59.487Z,101365.16
2022-10-05T09:30:16.408Z,101355.06
2022-10-05T09:34:55.551Z,101358.19
2022-10-05T09:39:15.853Z,101358.19
2022-10-05T09:43:57.067Z,101341.34
2022-10-05T09:48:22.061Z,101345.63
2022-10-05T09:52:55.995Z,101343.31
2022-10-05T09:57:47.195Z,101345.88
2022-10-05T10:02:14.420Z,101342.19
2022-10-05T10:06:47.835Z,101336.97
2022-10-05T10:11:11.441Z,101342.53
2022-10-05T10:15:42.817Z,101340.25
2022-10-05T10:19:46.951Z,101335.84
2022-10-05T10:24:03.126Z,101342.69
2022-10-05T10:28:29.513Z,101329.25
2022-10-05T10:32:36.978Z,101322.81
2022-10-05T10:36:59.895Z,101309.78
2022-10-05T10:41:35.784Z,101303.88
2022-10-05T10:45:45.387Z,101303.09
2022-10-05T10:50:07.972Z,101308.00
2022-10-05T10:54:12.473Z,101291.66
2022-10-05T10:58:43.753Z,101287.38
2022-10-05T11:03:17.824Z,101286.06
2022-10-05T11:07:58.843Z,101280.38
2022-10-05T11:12:06.414Z,101288.16
2022-10-05T11:16:30.822Z,101278.06
2022-10-05T11:21:02.359Z,101272.25
2022-10-05T11:25:33.259Z,101270.91
2022-10-05T11:30:14.207Z,101279.06
2022-10-05T11:34:25.088Z,101273.75
2022-10-05T11:39:03.960Z,101275.31
2022-10-05T11:43:41.669Z,101280.41
2022-10-05T11:48:04.334Z,101280.09
2022-10-05T11:52:12.882Z,101278.72
2022-10-05T11:56:23.461Z,101285.50
2022-10-05T12:00:36.123Z,101263.78
2022-10-05T12:05:04.673Z,101266.97
2022-10-05T12:09:24.627Z,101270.28
2022-10-05T12:13:52.209Z,101269.72
2022-10-05T12:18:08.158Z,101267.00
2022-10-05T12:22:25.427Z,101262.41
2022-10-05T12:26:36.719Z,101267.28
2022-10-05T12:31:05.417Z,101252.81
2022-10-05T12:35:47.518Z,101260.38
2022-10-05T12:40:02.537Z,101262.53
2022-10-05T12:44:39.719Z,101254.19
2022-10-05T12:49:18.597Z,101256.09
2022-10-05T12:53:32.075Z,101257.09
2022-10-05T12:57:55.411Z,101251.06
2022-10-05T13:02:02.116Z,101247.06
2022-10-05T13:06:17.704Z,101243.81
2022-10-05T13:11:01.165Z,101247.19
2022-10-05T13:15:19.983Z,101233.88
2022-10-05T13:19:52.416Z,101240.19
2022-10-05T13:24:11.921Z,101246.25
2022-10-05T13:28:21.743Z,101235.06
2022-10-05T13:32:27.208Z,101230.53
2022-10-05T13:36:39.077Z,101227.25
2022-10-05T13:41:25.798Z,101223.28
2022-10-05T13:45:38.568Z,101218.78
2022-10-05T13:50:07.225Z,101212.09
2022-10-05T13:54:22.916Z,101215.25
2022-10-05T13:58:45.360Z,101214.28
2022-10-05T14:02:56.552Z,101222.75
2022-10-05T14:07:21.339Z,101225.22
2022-10-05T14:11:36.489Z,101215.84
2022-10-05T14:15:42.076Z,101214.16
2022-10-05T14:19:48.606Z,101218.31
2022-10-05T14:23:51.094Z,101213.91
2022-10-05T14:28:24.865Z,101203.72
2022-10-05T14:32:30.860Z,101205.81
2022-10-05T14:36:43.804Z,101197.84
2022-10-05T14:40:45.211Z,101197.25
2022-10-05T14:44:59.373Z,101201.03
2022-10-05T14:49:24.191Z,101199.41
2022-10-05T14:53:37.956Z,101192.56
2022-10-05T14:57:56.155Z,101197.44
2022-10-05T15:02:23.155Z,101198.69
2022-10-05T15:06:39.594Z,101202.50
2022-10-05T15:10:52.711Z,101213.63
2022-10-05T15:15:02.763Z,101202.72
2022-10-05T15:19:20.777Z,101191.97
2022-10-05T15:23:47.366Z,101196.75
2022-10-05T15:28:25.753Z,101195.47
2022-10-05T15:32:50.877Z,101187.66
2022-10-05T15:37:10.604Z,101187.59
2022-10-05T15:41:23.621Z,101185.19
2022-10-05T15:45:34.100Z,101182.66
2022-10-05T15:49:47.293Z,101181.44
2022-10-05T15:54:24.104Z,101185.41
2022-10-05T15:58:46.961Z,101182.03
2022-10-05T16:02:52.601Z,101187.78
2022-10-05T16:07:17.623Z,101185.72
2022-10-05T16:11:43.063Z,101196.50
2022-10-05T16:15:50.032Z,101189.94
2022-10-05T16:20:15.052Z,101186.75
2022-10-05T16:24:49.877Z,101176.78
2022-10-05T16:29:05.252Z,101177.88
2022-10-05T16:33:12.464Z,101182.63
2022-10-05T16:37:33.241Z,101184.75
2022-10-05T16:41:44.030Z,101179.16
2022-10-05T16:45:58.785Z,101181.69
2022-10-05T16:50:27.652Z,101181.13
2022-10-05T16:54:50.113Z,101186.38
2022-10-05T16:59:29.250Z,101174.81
2022-10-05T17:03:47.687Z,101184.50
2022-10-05T17:08:08.474Z,101184.19
2022-10-05T17:12:26.675Z,101193.94
2022-10-05T17:16:43.558Z,101182.97
2022-10-05T17:21:10.692Z,101179.31
2022-10-05T17:25:19.270Z,101186.75
2022-10-05T17:29:49.824Z,101190.19
2022-10-05T17:34:00.247Z,101196.22
2022-10-05T17:38:14.409Z,101195.16
2022-10-05T17:42:31.220Z,101181.88
2022-10-05T17:46:49.550Z,101195.03
2022-10-05T17:51:09.710Z,101189.56
2022-10-05T17:55:27.372Z,101190.69
2022-10-05T17:59:56.749Z,101197.81
2022-10-05T18:04:13.194Z,101194.53
2022-10-05T18:08:16.400Z,101200.75
2022-10-05T18:12:17.934Z,101207.47
2022-10-05T18:16:56.278Z,101211.22
2022-10-05T18:21:16.439Z,101207.19
2022-10-05T18:25:43.579Z,101208.19
2022-10-05T18:30:05.578Z,101204.00
2022-10-05T18:34:15.429Z,101196.72
2022-10-05T18:38:52.852Z,101205.50
2022-10-05T18:43:18.280Z,101196.09
2022-10-05T18:47:41.015Z,101203.41
2022-10-05T18:51:57.840Z,101195.88
2022-10-05T18:56:19.078Z,101196.94
2022-10-05T19:00:23.352Z,101204.44
2022-10-05T19:04:37.616Z,101197.63
2022-10-05T19:09:07.309Z,101190.31
2022-10-05T19:13:44.437Z,101185.19
2022-10-05T19:18:15.028Z,101182.13
2022-10-05T19:22:29.428Z,101180.53
2022-10-05T19:26:55.623Z,101175.38
2022-10-05T19:31:12.101Z,101171.78
2022-10-05T19:35:25.219Z,101173.06
2022-10-05T19:39:58.087Z,101168.88
2022-10-05T19:44:17.442Z,101166.31
2022-10-05T19:48:43.029Z,101170.94
2022-10-05T19:52:49.143Z,101170.63
2022-10-05T19:56:53.995Z,101171.50
2022-10-05T20:01:00.858Z,101161.56
2022-10-05T20:05:08.415Z,101157.13
2022-10-05T20:09:21.118Z,101147.41
2022-10-05T20:13:22.901Z,101152.59
2022-10-05T20:17:47.812Z,101150.66
2022-10-05T20:21:51.578Z,101142.28
2022-10-05T20:26:11.971Z,101146.22
2022-10-05T20:30:22.599Z,101140.97
2022-10-05T20:34:24.191Z,101137.94
2022-10-05T20:38:26.091Z,101132.34
2022-10-05T20:42:27.803Z,101135.75
2022-10-05T20:46:31.127Z,101139.69
2022-10-05T20:50:33.126Z,101137.97
2022-10-05T20:54:34.712Z,101138.84
2022-10-05T20:58:36.289Z,101132.44
2022-10-05T21:02:39.373Z,101139.59
2022-10-05T21:06:41.048Z,101145.28
2022-10-05T21:10:42.475Z,101141.72
2022-10-05T21:14:43.980Z,101143.34
2022-10-05T21:18:47.385Z,101151.84
2022-10-05T21:22:48.843Z,101155.78
2022-10-05T21:26:50.331Z,101153.50
2022-10-05T21:30:51.835Z,101146.56
2022-10-05T21:34:53.262Z,101147.88
2022-10-05T21:38:55.520Z,101142.13
2022-10-05T21:42:57.003Z,101143.03
2022-10-05T21:46:58.878Z,101145.63
2022-10-05T21:51:02.178Z,101139.13
2022-10-05T21:55:05.290Z,101141.19
2022-10-05T21:59:09.808Z,101140.97
2022-10-05T22:03:11.252Z,101135.72
2022-10-05T22:07:20.520Z,101131.22
2022-10-05T22:11:22.053Z,101130.97
2022-10-05T22:15:23.474Z,101131.28
2022-10-05T22:19:24.985Z,101126.50
2022-10-05T22:23:26.428Z,101116.13
2022-10-05T22:27:29.268Z,101125.97
2022-10-05T22:31:30.758Z,101122.31
2022-10-05T22:35:35.798Z,101125.88
2022-10-05T22:39:37.201Z,101124.19
2022-10-05T22:43:39.148Z,101129.66
2022-10-05T22:47:42.241Z,101137.19
2022-10-05T22:51:43.805Z,101134.31
2022-10-05T22:55:45.283Z,101129.88
2022-10-05T22:59:46.740Z,101143.38
2022-10-05T23:03:48.166Z,101144.50
2022-10-05T23:07:49.615Z,101152.06
2022-10-05T23:11:54.146Z,101152.06
2022-10-05T23:15:56.116Z,101161.13
2022-10-05T23:19:57.859Z,101157.31
2022-10-05T23:23:59.268Z,101176.50
2022-10-05T23:28:01.781Z,101183.94
2022-10-05T23:32:04.318Z,101181.97
2022-10-05T23:36:09.243Z,101178.09
2022-10-05T23:40:14.133Z,101189.66
2022-10-05T23:44:15.603Z,101202.69
2022-10-05T23:48:17.100Z,101201.25
2022-10-05T23:52:18.515Z,101203.84
2022-10-05T23:56:20.021Z,101208.94
